createdAt,value
2023-03-04T00:00:06.874Z,9.75
2023-03-04T00:01:13.329Z,9.77
2023-03-04T00:02:16.869Z,9.81
2023-03-04T00:03:20.937Z,9.79
2023-03-04T00:04:24.859Z,9.74
2023-03-04T00:05:28.992Z,9.76
2023-03-04T00:06:32.962Z,9.75
2023-03-04T00:07:36.715Z,9.71
2023-03-04T00:08:40.312Z,9.69
2023-03-04T00:09:45.582Z,9.65
2023-03-04T00:10:49.128Z,9.62
2023-03-04T00:11:53.056Z,9.62
2023-03-04T00:12:56.637Z,9.64
2023-03-04T00:14:00.726Z,9.73
2023-03-04T00:15:04.995Z,9.78
2023-03-04T00:16:08.557Z,9.82
2023-03-04T00:17:12.487Z,9.79
2023-03-04T00:18:16.819Z,9.89
2023-03-04T00:19:20.616Z,9.91
2023-03-04T00:20:24.168Z,9.93
2023-03-04T00:21:27.714Z,9.96
2023-03-04T00:22:31.579Z,9.98
2023-03-04T00:23:35.139Z,10.03
2023-03-04T00:24:39.101Z,10.03
2023-03-04T00:25:43.640Z,10.05
2023-03-04T00:26:47.256Z,10.06
2023-03-04T00:27:51.011Z,10.07
2023-03-04T00:28:54.559Z,10.09
2023-03-04T00:29:59.142Z,10.12
2023-03-04T00:31:03.120Z,10.15
2023-03-04T00:32:07.300Z,10.16
2023-03-04T00:33:10.922Z,10.17
2023-03-04T00:34:14.484Z,10.17
2023-03-04T00:35:18.305Z,10.16
2023-03-04T00:36:21.941Z,10.15
2023-03-04T00:37:25.396Z,10.14
2023-03-04T00:38:29.455Z,10.19
2023-03-04T00:39:33.168Z,10.16
2023-03-04T00:40:36.786Z,10.16
2023-03-04T00:41:41.318Z,10.17
2023-03-04T00:42:45.119Z,10.16
2023-03-04T00:43:49.151Z,10.17
2023-03-04T00:44:53.346Z,10.19
2023-03-04T00:45:57.435Z,10.17
2023-03-04T00:47:01.414Z,10.13
2023-03-04T00:48:05.277Z,10.08
2023-03-04T00:49:08.785Z,10.05
2023-03-04T00:50:13.165Z,10.06
2023-03-04T00:51:16.674Z,9.99
2023-03-04T00:52:20.092Z,9.95
2023-03-04T00:53:24.877Z,9.71
2023-03-04T00:54:28.553Z,9.67
2023-03-04T00:55:32.484Z,9.63
2023-03-04T00:56:36.405Z,9.42
2023-03-04T00:57:40.059Z,9.37
2023-03-04T00:58:43.534Z,9.38
2023-03-04T00:59:47.437Z,9.39
2023-03-04T01:00:51.749Z,9.39
2023-03-04T01:01:55.239Z,9.46
2023-03-04T01:02:59.102Z,9.44
2023-03-04T01:04:03.094Z,9.37
2023-03-04T01:05:07.951Z,9.32
2023-03-04T01:06:12.037Z,9.22
2023-03-04T01:07:15.650Z,9.18
2023-03-04T01:08:19.545Z,9.12
2023-03-04T01:09:23.078Z,9.06
2023-03-04T01:10:27.117Z,9.09
2023-03-04T01:11:30.708Z,9.16
2023-03-04T01:12:34.127Z,9.13
2023-03-04T01:13:37.748Z,9.12
2023-03-04T01:14:41.124Z,9.11
2023-03-04T01:15:44.648Z,9.11
2023-03-04T01:16:48.336Z,9.15
2023-03-04T01:17:52.012Z,9.10
2023-03-04T01:18:55.799Z,8.93
2023-03-04T01:19:59.482Z,8.86
2023-03-04T01:21:03.467Z,8.86
2023-03-04T01:22:07.351Z,8.84
2023-03-04T01:23:11.049Z,8.89
2023-03-04T01:24:14.596Z,8.84
2023-03-04T01:25:18.147Z,8.79
2023-03-04T01:26:21.600Z,8.77
2023-03-04T01:27:25.098Z,8.72
2023-03-04T01:28:28.513Z,8.75
2023-03-04T01:29:31.961Z,8.72
2023-03-04T01:30:35.553Z,8.75
2023-03-04T01:31:39.389Z,8.75
2023-03-04T01:32:42.971Z,8.83
2023-03-04T01:33:46.843Z,8.84
2023-03-04T01:34:50.789Z,8.86
2023-03-04T01:35:54.764Z,8.82
2023-03-04T01:36:58.833Z,8.94
2023-03-04T01:38:02.394Z,8.87
2023-03-04T01:39:06.292Z,8.85
2023-03-04T01:40:10.531Z,8.84
2023-03-04T01:41:14.798Z,8.79
2023-03-04T01:42:20.511Z,8.77
2023-03-04T01:43:26.193Z,8.79
2023-03-04T01:44:30.222Z,8.77
2023-03-04T01:45:34.146Z,8.79
2023-03-04T01:46:37.744Z,8.82
2023-03-04T01:47:41.886Z,8.84
2023-03-04T01:48:45.882Z,8.86
2023-03-04T01:49:52.433Z,8.94
2023-03-04T01:50:55.974Z,8.98
2023-03-04T01:51:59.390Z,9.08
2023-03-04T01:53:03.734Z,9.15
2023-03-04T01:54:07.651Z,9.15
2023-03-04T01:55:19.383Z,9.10
2023-03-04T01:56:29.296Z,9.12
2023-03-04T01:57:36.497Z,9.15
2023-03-04T01:58:40.411Z,9.15
2023-03-04T01:59:44.379Z,9.16
2023-03-04T02:00:47.984Z,9.17
2023-03-04T02:01:54.032Z,9.18
2023-03-04T02:03:03.762Z,9.24
2023-03-04T02:04:08.616Z,9.27
2023-03-04T02:05:12.764Z,9.26
2023-03-04T02:06:17.251Z,9.28
2023-03-04T02:07:20.799Z,9.33
2023-03-04T02:08:25.222Z,9.35
2023-03-04T02:09:29.527Z,9.39
2023-03-04T02:10:33.274Z,9.42
2023-03-04T02:11:37.300Z,9.44
2023-03-04T02:12:40.859Z,9.44
2023-03-04T02:13:44.297Z,9.46
2023-03-04T02:14:47.802Z,9.48
2023-03-04T02:15:51.405Z,9.48
2023-03-04T02:16:54.923Z,9.48
2023-03-04T02:17:59.560Z,9.51
2023-03-04T02:19:03.137Z,9.54
2023-03-04T02:20:31.666Z,9.61
2023-03-04T02:21:35.839Z,9.66
2023-03-04T02:22:41.437Z,9.66
2023-03-04T02:24:05.159Z,9.63
2023-03-04T02:25:12.470Z,9.60
2023-03-04T02:26:28.510Z,9.60
2023-03-04T02:27:32.903Z,9.57
2023-03-04T02:28:37.036Z,9.52
2023-03-04T02:29:41.336Z,9.52
2023-03-04T02:30:45.171Z,9.45
2023-03-04T02:31:49.846Z,9.43
2023-03-04T02:32:54.895Z,9.33
2023-03-04T02:33:59.855Z,9.17
2023-03-04T02:35:04.089Z,9.10
2023-03-04T02:36:08.453Z,9.10
2023-03-04T02:37:12.201Z,9.09
2023-03-04T02:38:15.805Z,9.12
2023-03-04T02:39:22.729Z,9.14
2023-03-04T02:40:31.984Z,9.13
2023-03-04T02:41:36.342Z,9.12
2023-03-04T02:42:40.377Z,9.12
2023-03-04T02:43:46.452Z,9.11
2023-03-04T02:44:51.275Z,9.13
2023-03-04T02:45:56.466Z,9.16
2023-03-04T02:47:00.648Z,9.23
2023-03-04T02:48:04.459Z,9.29
2023-03-04T02:49:07.971Z,9.30
2023-03-04T02:50:12.480Z,9.34
2023-03-04T02:51:16.464Z,9.36
2023-03-04T02:52:24.451Z,9.42
2023-03-04T02:53:28.222Z,9.40
2023-03-04T02:54:32.737Z,9.44
2023-03-04T02:55:38.023Z,9.49
2023-03-04T02:56:50.167Z,9.52
2023-03-04T02:57:54.773Z,9.55
2023-03-04T02:58:58.703Z,9.53
2023-03-04T03:00:02.831Z,9.52
2023-03-04T03:01:07.165Z,9.54
2023-03-04T03:02:11.483Z,9.54
2023-03-04T03:03:15.402Z,9.49
2023-03-04T03:04:19.381Z,9.51
2023-03-04T03:05:24.782Z,9.49
2023-03-04T03:06:29.094Z,9.47
2023-03-04T03:07:34.179Z,9.51
2023-03-04T03:08:38.453Z,9.55
2023-03-04T03:09:42.140Z,9.55
2023-03-04T03:10:45.611Z,9.54
2023-03-04T03:11:49.054Z,9.58
2023-03-04T03:12:52.570Z,9.59
2023-03-04T03:13:56.767Z,9.59
2023-03-04T03:15:00.438Z,9.54
2023-03-04T03:16:04.848Z,9.55
2023-03-04T03:17:08.796Z,9.53
2023-03-04T03:18:12.482Z,9.55
2023-03-04T03:19:18.944Z,9.56
2023-03-04T03:20:23.156Z,9.53
2023-03-04T03:21:27.160Z,9.56
2023-03-04T03:22:31.210Z,9.53
2023-03-04T03:23:35.218Z,9.55
2023-03-04T03:24:38.629Z,9.57
2023-03-04T03:25:42.560Z,9.59
2023-03-04T03:26:46.486Z,9.61
2023-03-04T03:27:51.550Z,9.61
2023-03-04T03:28:55.475Z,9.63
2023-03-04T03:29:58.996Z,9.61
2023-03-04T03:31:02.457Z,9.60
2023-03-04T03:32:06.749Z,9.57
2023-03-04T03:33:10.277Z,9.61
2023-03-04T03:34:14.799Z,9.63
2023-03-04T03:35:18.440Z,9.63
2023-03-04T03:36:21.939Z,9.61
2023-03-04T03:37:25.483Z,9.62
2023-03-04T03:38:29.045Z,9.63
2023-03-04T03:39:32.882Z,9.63
2023-03-04T03:40:36.368Z,9.62
2023-03-04T03:41:40.339Z,9.64
2023-03-04T03:42:44.266Z,9.59
2023-03-04T03:43:47.784Z,9.59
2023-03-04T03:44:51.692Z,9.57
2023-03-04T03:45:55.674Z,9.54
2023-03-04T03:46:59.228Z,9.50
2023-03-04T03:48:03.161Z,9.48
2023-03-04T03:49:07.082Z,9.46
2023-03-04T03:50:11.042Z,9.44
2023-03-04T03:51:14.679Z,9.45
2023-03-04T03:52:18.174Z,9.42
2023-03-04T03:53:21.728Z,9.43
2023-03-04T03:54:25.683Z,9.42
2023-03-04T03:55:29.187Z,9.39
2023-03-04T03:56:33.054Z,9.42
2023-03-04T03:57:36.540Z,9.36
2023-03-04T03:58:40.144Z,9.33
2023-03-04T03:59:43.677Z,9.29
2023-03-04T04:00:47.417Z,9.31
2023-03-04T04:01:51.025Z,9.29
2023-03-04T04:02:56.523Z,9.26
2023-03-04T04:04:00.705Z,9.28
2023-03-04T04:05:04.284Z,9.28
2023-03-04T04:06:08.008Z,9.29
2023-03-04T04:07:11.451Z,9.31
2023-03-04T04:08:18.521Z,9.31
2023-03-04T04:09:22.244Z,9.31
2023-03-04T04:10:26.110Z,9.34
2023-03-04T04:11:30.090Z,9.33
2023-03-04T04:12:34.136Z,9.26
2023-03-04T04:13:39.269Z,9.17
2023-03-04T04:14:43.043Z,9.06
2023-03-04T04:15:46.996Z,9.02
2023-03-04T04:16:50.582Z,8.88
2023-03-04T04:17:54.096Z,8.88
2023-03-04T04:18:57.608Z,8.89
2023-03-04T04:20:01.081Z,8.88
2023-03-04T04:21:05.456Z,8.87
2023-03-04T04:22:13.162Z,8.90
2023-03-04T04:23:17.004Z,8.94
2023-03-04T04:24:20.941Z,8.96
2023-03-04T04:25:25.072Z,8.90
2023-03-04T04:26:29.201Z,8.85
2023-03-04T04:27:32.672Z,8.84
2023-03-04T04:28:36.588Z,8.76
2023-03-04T04:29:40.807Z,8.78
2023-03-04T04:30:44.771Z,8.78
2023-03-04T04:31:48.352Z,8.80
2023-03-04T04:32:52.301Z,8.77
2023-03-04T04:33:56.195Z,8.70
2023-03-04T04:35:00.133Z,8.77
2023-03-04T04:36:05.889Z,8.72
2023-03-04T04:37:09.752Z,8.71
2023-03-04T04:38:13.465Z,8.66
2023-03-04T04:39:17.309Z,8.64
2023-03-04T04:40:20.914Z,8.63
2023-03-04T04:41:33.053Z,8.55
2023-03-04T04:42:37.024Z,8.51
2023-03-04T04:43:40.534Z,8.47
2023-03-04T04:44:44.049Z,8.45
2023-03-04T04:45:47.981Z,8.43
2023-03-04T04:46:51.723Z,8.45
2023-03-04T04:47:57.759Z,8.47
2023-03-04T04:49:01.255Z,8.51
2023-03-04T04:50:05.262Z,8.53
2023-03-04T04:51:09.137Z,8.56
2023-03-04T04:52:13.040Z,8.54
2023-03-04T04:53:16.976Z,8.52
2023-03-04T04:54:20.501Z,8.54
2023-03-04T04:55:24.360Z,8.58
2023-03-04T04:56:28.946Z,8.57
2023-03-04T04:57:32.537Z,8.57
2023-03-04T04:58:36.569Z,8.56
2023-03-04T04:59:40.165Z,8.60
2023-03-04T05:00:43.971Z,8.61
2023-03-04T05:01:47.829Z,8.56
2023-03-04T05:02:51.825Z,8.62
2023-03-04T05:03:55.975Z,8.65
2023-03-04T05:04:59.604Z,8.66
2023-03-04T05:06:03.094Z,8.65
2023-03-04T05:07:06.580Z,8.68
2023-03-04T05:08:10.449Z,8.70
2023-03-04T05:09:14.578Z,8.70
2023-03-04T05:10:18.284Z,8.68
2023-03-04T05:11:21.825Z,8.64
2023-03-04T05:12:25.788Z,8.65
2023-03-04T05:13:29.501Z,8.68
2023-03-04T05:14:33.280Z,8.67
2023-03-04T05:15:39.739Z,8.70
2023-03-04T05:16:43.314Z,8.68
2023-03-04T05:17:47.133Z,8.69
2023-03-04T05:18:50.702Z,8.68
2023-03-04T05:19:54.228Z,8.65
2023-03-04T05:20:59.254Z,8.62
2023-03-04T05:22:02.688Z,8.58
2023-03-04T05:23:06.629Z,8.56
2023-03-04T05:24:10.660Z,8.57
2023-03-04T05:25:14.543Z,8.55
2023-03-04T05:26:19.135Z,8.56
2023-03-04T05:27:22.713Z,8.58
2023-03-04T05:28:26.553Z,8.61
2023-03-04T05:29:30.228Z,8.58
2023-03-04T05:30:34.000Z,8.62
2023-03-04T05:31:37.946Z,8.66
2023-03-04T05:32:41.605Z,8.67
2023-03-04T05:33:45.103Z,8.68
2023-03-04T05:34:48.952Z,8.70
2023-03-04T05:35:52.641Z,8.70
2023-03-04T05:36:56.131Z,8.71
2023-03-04T05:37:59.542Z,8.71
2023-03-04T05:39:03.407Z,8.71
2023-03-04T05:40:07.652Z,8.70
2023-03-04T05:41:11.491Z,8.71
2023-03-04T05:42:15.358Z,8.72
2023-03-04T05:43:19.370Z,8.72
2023-03-04T05:44:23.244Z,8.69
2023-03-04T05:45:27.397Z,8.71
2023-03-04T05:46:33.453Z,8.74
2023-03-04T05:47:37.518Z,8.61
2023-03-04T05:48:41.058Z,8.53
2023-03-04T05:49:45.171Z,8.53
2023-03-04T05:50:49.039Z,8.48
2023-03-04T05:51:53.025Z,8.37
2023-03-04T05:52:56.957Z,8.36
2023-03-04T05:54:00.567Z,8.20
2023-03-04T05:55:04.540Z,8.15
2023-03-04T05:56:12.166Z,8.17
2023-03-04T05:57:15.728Z,8.18
2023-03-04T05:58:19.342Z,8.18
2023-03-04T05:59:24.052Z,8.19
2023-03-04T06:00:27.695Z,8.21
2023-03-04T06:01:31.909Z,8.22
2023-03-04T06:02:35.827Z,8.26
2023-03-04T06:03:39.780Z,8.27
2023-03-04T06:04:43.505Z,8.30
2023-03-04T06:05:46.885Z,8.31
2023-03-04T06:06:50.770Z,8.33
2023-03-04T06:07:54.351Z,8.34
2023-03-04T06:08:58.216Z,8.34
2023-03-04T06:10:01.821Z,8.38
2023-03-04T06:11:06.263Z,8.43
2023-03-04T06:12:10.287Z,8.41
2023-03-04T06:13:13.956Z,8.40
2023-03-04T06:14:17.949Z,8.38
2023-03-04T06:15:21.886Z,8.35
2023-03-04T06:16:25.961Z,8.33
2023-03-04T06:17:31.014Z,8.30
2023-03-04T06:18:34.949Z,8.28
2023-03-04T06:19:42.501Z,8.23
2023-03-04T06:20:46.353Z,8.25
2023-03-04T06:21:49.966Z,8.27
2023-03-04T06:22:53.574Z,8.29
2023-03-04T06:23:56.901Z,8.30
2023-03-04T06:25:00.760Z,8.23
2023-03-04T06:26:04.823Z,8.06
2023-03-04T06:27:08.264Z,7.89
2023-03-04T06:28:11.753Z,7.68
2023-03-04T06:29:15.728Z,7.50
2023-03-04T06:30:20.316Z,7.42
2023-03-04T06:31:24.709Z,7.40
2023-03-04T06:32:28.838Z,7.38
2023-03-04T06:33:33.046Z,7.39
2023-03-04T06:34:36.870Z,7.40
2023-03-04T06:35:40.477Z,7.40
2023-03-04T06:36:43.873Z,7.40
2023-03-04T06:37:47.720Z,7.41
2023-03-04T06:38:51.635Z,7.43
2023-03-04T06:39:55.831Z,7.50
2023-03-04T06:41:08.196Z,7.47
2023-03-04T06:42:11.735Z,7.39
2023-03-04T06:43:15.560Z,7.30
2023-03-04T06:44:19.642Z,7.29
2023-03-04T06:45:23.539Z,7.33
2023-03-04T06:46:30.343Z,7.23
2023-03-04T06:47:34.517Z,7.25
2023-03-04T06:48:38.319Z,7.20
2023-03-04T06:49:42.188Z,7.13
2023-03-04T06:50:46.155Z,7.12
2023-03-04T06:51:49.641Z,7.18
2023-03-04T06:52:53.147Z,7.12
2023-03-04T06:53:57.275Z,7.03
2023-03-04T06:55:00.857Z,7.12
2023-03-04T06:56:04.446Z,7.15
2023-03-04T06:57:08.632Z,7.13
2023-03-04T06:58:12.147Z,7.05
2023-03-04T06:59:16.204Z,7.04
2023-03-04T07:00:20.260Z,7.04
2023-03-04T07:01:25.879Z,7.19
2023-03-04T07:02:29.767Z,7.18
2023-03-04T07:03:33.245Z,7.26
2023-03-04T07:04:36.762Z,7.33
2023-03-04T07:05:40.554Z,7.38
2023-03-04T07:06:44.421Z,7.44
2023-03-04T07:07:48.976Z,7.46
2023-03-04T07:08:52.953Z,7.52
2023-03-04T07:09:56.652Z,7.55
2023-03-04T07:11:00.775Z,7.58
2023-03-04T07:12:04.858Z,7.62
2023-03-04T07:13:08.434Z,7.62
2023-03-04T07:14:12.324Z,7.64
2023-03-04T07:15:16.362Z,7.69
2023-03-04T07:16:22.399Z,7.70
2023-03-04T07:17:26.044Z,7.63
2023-03-04T07:19:33.500Z,7.37
2023-03-04T07:20:37.340Z,7.38
2023-03-04T07:21:40.918Z,7.49
2023-03-04T07:22:44.690Z,7.43
2023-03-04T07:23:48.276Z,7.30
2023-03-04T07:24:52.124Z,7.30
2023-03-04T07:25:55.604Z,7.43
2023-03-04T07:26:59.463Z,7.49
2023-03-04T07:28:03.153Z,7.50
2023-03-04T07:29:07.083Z,7.52
2023-03-04T07:30:11.626Z,7.51
2023-03-04T07:31:23.833Z,7.58
2023-03-04T07:32:27.681Z,7.54
2023-03-04T07:33:31.683Z,7.48
2023-03-04T07:34:35.886Z,7.60
2023-03-04T07:35:39.853Z,7.61
2023-03-04T07:36:43.440Z,7.47
2023-03-04T07:37:47.364Z,7.46
2023-03-04T07:38:51.877Z,7.51
2023-03-04T07:39:55.807Z,7.50
2023-03-04T07:40:59.895Z,7.58
2023-03-04T07:42:03.848Z,7.66
2023-03-04T07:43:07.962Z,7.73
2023-03-04T07:44:13.363Z,7.83
2023-03-04T07:45:17.095Z,7.91
2023-03-04T07:46:21.256Z,8.00
2023-03-04T07:47:24.859Z,8.09
2023-03-04T07:48:28.697Z,8.17
2023-03-04T07:49:32.597Z,8.25
2023-03-04T07:50:36.137Z,8.35
2023-03-04T07:51:39.602Z,8.46
2023-03-04T07:52:44.570Z,8.54
2023-03-04T07:53:49.768Z,8.63
2023-03-04T07:54:53.625Z,8.71
2023-03-04T07:55:57.215Z,8.80
2023-03-04T07:57:00.708Z,8.87
2023-03-04T07:58:04.660Z,8.92
2023-03-04T07:59:08.515Z,8.97
2023-03-04T08:00:12.971Z,9.04
2023-03-04T08:01:22.128Z,9.11
2023-03-04T08:02:25.734Z,9.14
2023-03-04T08:03:30.286Z,9.24
2023-03-04T08:04:33.727Z,9.34
2023-03-04T08:05:39.900Z,9.42
2023-03-04T08:06:44.201Z,9.52
2023-03-04T08:07:47.693Z,9.58
2023-03-04T08:08:51.329Z,9.68
2023-03-04T08:09:54.805Z,9.47
2023-03-04T08:10:58.656Z,9.50
2023-03-04T08:12:02.272Z,9.56
2023-03-04T08:13:06.437Z,9.57
2023-03-04T08:14:11.744Z,9.38
2023-03-04T08:15:15.275Z,9.35
2023-03-04T08:16:19.992Z,9.18
2023-03-04T08:17:23.912Z,9.02
2023-03-04T08:18:27.638Z,8.94
2023-03-04T08:19:31.637Z,8.99
2023-03-04T08:20:35.364Z,9.14
2023-03-04T08:21:38.746Z,9.23
2023-03-04T08:22:42.307Z,9.30
2023-03-04T08:23:46.277Z,9.22
2023-03-04T08:24:49.749Z,9.34
2023-03-04T08:25:53.307Z,9.45
2023-03-04T08:26:56.852Z,9.52
2023-03-04T08:28:00.702Z,9.60
2023-03-04T08:29:05.200Z,9.65
2023-03-04T08:30:09.730Z,9.78
2023-03-04T08:31:14.655Z,9.91
2023-03-04T08:32:18.711Z,9.89
2023-03-04T08:33:22.851Z,9.90
2023-03-04T08:34:27.431Z,9.68
2023-03-04T08:35:30.931Z,9.55
2023-03-04T08:36:34.860Z,9.57
2023-03-04T08:37:38.536Z,9.74
2023-03-04T08:38:42.544Z,9.84
2023-03-04T08:39:46.142Z,9.98
2023-03-04T08:40:57.218Z,10.11
2023-03-04T08:42:00.837Z,10.14
2023-03-04T08:43:04.694Z,10.13
2023-03-04T08:44:11.180Z,10.13
2023-03-04T08:45:15.448Z,9.91
2023-03-04T08:46:19.429Z,9.70
2023-03-04T08:47:23.104Z,9.55
2023-03-04T08:48:26.741Z,9.69
2023-03-04T08:49:30.267Z,9.83
2023-03-04T08:50:34.108Z,9.88
2023-03-04T08:51:37.868Z,10.06
2023-03-04T08:52:41.804Z,10.22
2023-03-04T08:53:45.391Z,10.26
2023-03-04T08:54:49.230Z,10.39
2023-03-04T08:55:53.883Z,10.47
2023-03-04T08:56:57.404Z,10.58
2023-03-04T08:58:01.321Z,10.54
2023-03-04T08:59:05.091Z,10.65
2023-03-04T09:00:09.311Z,10.64
2023-03-04T09:01:13.886Z,10.61
2023-03-04T09:02:17.931Z,10.68
2023-03-04T09:03:22.554Z,10.79
2023-03-04T09:04:26.587Z,10.61
2023-03-04T09:05:30.541Z,10.63
2023-03-04T09:06:34.492Z,10.73
2023-03-04T09:07:41.739Z,10.61
2023-03-04T09:08:45.971Z,10.40
2023-03-04T09:09:49.788Z,10.35
2023-03-04T09:10:54.451Z,10.28
2023-03-04T09:11:58.102Z,10.48
2023-03-04T09:13:02.697Z,10.46
2023-03-04T09:14:06.724Z,10.48
2023-03-04T09:15:12.057Z,10.73
2023-03-04T09:16:16.260Z,10.79
2023-03-04T09:17:19.794Z,10.89
2023-03-04T09:18:24.445Z,11.04
2023-03-04T09:19:28.996Z,11.18
2023-03-04T09:20:32.964Z,11.28
2023-03-04T09:21:36.481Z,11.41
2023-03-04T09:22:40.255Z,11.45
2023-03-04T09:23:44.228Z,11.48
2023-03-04T09:24:48.368Z,11.33
2023-03-04T09:25:52.285Z,11.42
2023-03-04T09:26:55.881Z,11.46
2023-03-04T09:27:59.809Z,11.36
2023-03-04T09:29:03.480Z,11.47
2023-03-04T09:30:08.104Z,11.57
2023-03-04T09:31:15.675Z,11.79
2023-03-04T09:32:19.296Z,11.98
2023-03-04T09:33:22.810Z,11.98
2023-03-04T09:34:26.379Z,12.07
2023-03-04T09:35:33.532Z,11.96
2023-03-04T09:36:37.142Z,11.84
2023-03-04T09:37:41.706Z,11.86
2023-03-04T09:38:45.836Z,11.88
2023-03-04T09:39:50.886Z,11.92
2023-03-04T09:40:54.893Z,11.78
2023-03-04T09:41:59.373Z,11.90
2023-03-04T09:43:06.679Z,12.10
2023-03-04T09:44:34.824Z,12.24
2023-03-04T09:45:42.440Z,12.04
2023-03-04T09:46:46.482Z,12.12
2023-03-04T09:47:51.290Z,12.06
2023-03-04T09:48:56.490Z,12.13
2023-03-04T09:50:02.661Z,12.21
2023-03-04T09:51:23.329Z,12.15
2023-03-04T09:52:45.280Z,12.22
2023-03-04T09:54:13.943Z,12.33
2023-03-04T09:55:20.208Z,12.34
2023-03-04T09:56:24.436Z,12.24
2023-03-04T09:58:04.059Z,12.33
2023-03-04T09:59:29.419Z,12.47
2023-03-04T10:01:35.486Z,12.58
2023-03-04T10:03:04.138Z,12.53
2023-03-04T10:04:38.305Z,12.52
2023-03-04T10:05:44.864Z,12.52
2023-03-04T10:06:54.828Z,12.55
2023-03-04T10:08:04.567Z,12.68
2023-03-04T10:09:22.784Z,12.72
2023-03-04T10:10:27.473Z,12.62
2023-03-04T10:11:51.012Z,12.59
2023-03-04T10:12:54.813Z,12.63
2023-03-04T10:14:24.240Z,12.59
2023-03-04T10:15:36.160Z,12.55
2023-03-04T10:16:48.375Z,12.38
2023-03-04T10:17:55.333Z,12.46
2023-03-04T10:19:31.015Z,12.53
2023-03-04T10:21:19.710Z,12.63
2023-03-04T10:23:12.013Z,12.76
2023-03-04T10:24:19.146Z,12.82
2023-03-04T10:25:25.551Z,12.67
2023-03-04T10:26:31.600Z,12.53
2023-03-04T10:27:35.589Z,12.53
2023-03-04T10:28:39.934Z,12.57
2023-03-04T10:29:43.917Z,12.63
2023-03-04T10:31:08.676Z,12.55
2023-03-04T10:32:23.051Z,12.60
2023-03-04T10:33:29.268Z,12.70
2023-03-04T10:34:33.241Z,12.68
2023-03-04T10:35:38.472Z,12.56
2023-03-04T10:37:01.268Z,12.69
2023-03-04T10:38:05.292Z,12.63
2023-03-04T10:39:23.563Z,12.78
2023-03-04T10:40:27.462Z,12.66
2023-03-04T10:41:31.359Z,12.63
2023-03-04T10:42:38.130Z,12.51
2023-03-04T10:43:47.576Z,12.54
2023-03-04T10:44:59.456Z,12.65
2023-03-04T10:46:04.126Z,12.78
2023-03-04T10:47:11.045Z,12.77
2023-03-04T10:48:32.798Z,12.71
2023-03-04T10:49:36.705Z,12.60
2023-03-04T10:50:40.201Z,12.52
2023-03-04T10:51:52.057Z,12.59
2023-03-04T10:52:56.783Z,12.67
2023-03-04T10:54:11.223Z,12.74
2023-03-04T10:55:44.900Z,12.63
2023-03-04T10:57:17.798Z,12.36
2023-03-04T10:58:21.319Z,12.36
2023-03-04T10:59:36.733Z,12.44
2023-03-04T11:00:40.467Z,12.55
2023-03-04T11:01:44.363Z,12.46
2023-03-04T11:02:48.542Z,12.52
2023-03-04T11:03:52.369Z,12.55
2023-03-04T11:05:11.107Z,12.46
2023-03-04T11:06:23.372Z,12.46
2023-03-04T11:07:27.790Z,12.40
2023-03-04T11:08:31.931Z,12.39
2023-03-04T11:09:35.621Z,12.48
2023-03-04T11:10:39.435Z,12.51
2023-03-04T11:11:45.620Z,12.47
2023-03-04T11:12:59.647Z,12.39
2023-03-04T11:14:29.133Z,12.38
2023-03-04T11:15:33.037Z,12.50
2023-03-04T11:16:36.677Z,12.39
2023-03-04T11:17:55.778Z,12.50
2023-03-04T11:19:04.935Z,12.61
2023-03-04T11:20:34.264Z,12.69
2023-03-04T11:21:41.650Z,12.75
2023-03-04T11:22:46.437Z,12.52
2023-03-04T11:24:27.202Z,12.62
2023-03-04T11:25:47.426Z,12.69
2023-03-04T11:26:56.638Z,12.93
2023-03-04T11:28:02.987Z,13.17
2023-03-04T11:29:18.803Z,13.20
2023-03-04T11:30:44.243Z,13.18
2023-03-04T11:31:53.253Z,13.08
2023-03-04T11:33:01.874Z,13.15
2023-03-04T11:34:42.804Z,13.24
2023-03-04T11:36:15.023Z,13.44
2023-03-04T11:37:27.293Z,13.62
2023-03-04T11:38:34.980Z,13.68
2023-03-04T11:39:50.229Z,13.68
2023-03-04T11:41:21.970Z,13.82
2023-03-04T11:42:34.148Z,13.84
2023-03-04T11:43:43.467Z,13.78
2023-03-04T11:44:47.060Z,13.60
2023-03-04T11:45:56.688Z,13.73
2023-03-04T11:47:35.297Z,13.81
2023-03-04T11:48:41.835Z,13.88
2023-03-04T11:49:50.508Z,13.97
2023-03-04T11:51:22.005Z,14.00
2023-03-04T11:52:46.886Z,13.90
2023-03-04T11:53:56.415Z,13.69
2023-03-04T11:55:18.529Z,13.68
2023-03-04T11:56:51.818Z,13.70
2023-03-04T11:58:13.786Z,13.60
2023-03-04T11:59:47.369Z,13.54
2023-03-04T12:01:09.208Z,13.45
2023-03-04T12:02:23.878Z,13.46
2023-03-04T12:03:42.170Z,13.32
2023-03-04T12:05:13.232Z,13.44
2023-03-04T12:06:41.912Z,13.68
2023-03-04T12:08:02.143Z,13.64
2023-03-04T12:09:27.326Z,13.60
2023-03-04T12:10:41.192Z,13.43
2023-03-04T12:12:18.373Z,13.37
2023-03-04T12:13:31.002Z,13.57
2023-03-04T12:14:47.711Z,13.57
2023-03-04T12:16:13.314Z,13.69
2023-03-04T12:17:28.711Z,13.59
2023-03-04T12:18:40.851Z,13.46
2023-03-04T12:19:55.385Z,13.45
2023-03-04T12:21:18.232Z,13.49
2023-03-04T12:22:46.216Z,13.70
2023-03-04T12:24:12.952Z,13.80
2023-03-04T12:25:20.408Z,13.63
2023-03-04T12:26:34.464Z,13.65
2023-03-04T12:27:53.837Z,13.67
2023-03-04T12:29:37.243Z,13.63
2023-03-04T12:31:21.085Z,13.81
2023-03-04T12:32:27.446Z,14.08
2023-03-04T12:33:55.049Z,13.83
2023-03-04T12:35:00.850Z,13.91
2023-03-04T12:36:18.304Z,13.98
2023-03-04T12:37:45.344Z,13.92
2023-03-04T12:38:49.159Z,13.81
2023-03-04T12:40:19.505Z,13.75
2023-03-04T12:41:22.801Z,13.77
2023-03-04T12:42:38.988Z,13.86
2023-03-04T12:43:54.035Z,13.91
2023-03-04T12:45:00.384Z,14.20
2023-03-04T12:46:26.931Z,14.30
2023-03-04T12:47:53.476Z,14.49
2023-03-04T12:49:11.031Z,14.55
2023-03-04T12:50:34.566Z,14.51
2023-03-04T12:51:46.769Z,14.72
2023-03-04T12:53:30.503Z,14.79
2023-03-04T12:54:38.686Z,15.09
2023-03-04T12:55:44.276Z,15.18
2023-03-04T12:57:09.691Z,15.30
2023-03-04T12:58:28.508Z,15.23
2023-03-04T12:59:37.965Z,15.19
2023-03-04T13:00:45.588Z,15.11
2023-03-04T13:02:14.143Z,14.84
2023-03-04T13:03:23.670Z,14.95
2023-03-04T13:05:05.488Z,14.89
2023-03-04T13:06:11.622Z,14.59
2023-03-04T13:07:42.559Z,14.89
2023-03-04T13:09:04.787Z,14.86
2023-03-04T13:10:15.094Z,14.85
2023-03-04T13:11:28.441Z,14.78
2023-03-04T13:13:06.708Z,14.79
2023-03-04T13:14:17.892Z,14.69
2023-03-04T13:15:26.717Z,14.88
2023-03-04T13:16:54.119Z,14.82
2023-03-04T13:17:59.502Z,15.08
2023-03-04T13:19:03.506Z,15.18
2023-03-04T13:20:31.412Z,15.28
2023-03-04T13:21:34.888Z,15.34
2023-03-04T13:22:40.795Z,15.38
2023-03-04T13:23:44.231Z,15.41
2023-03-04T13:24:52.221Z,15.70
2023-03-04T13:25:59.151Z,15.71
2023-03-04T13:27:05.549Z,15.73
2023-03-04T13:28:16.323Z,15.74
2023-03-04T13:29:19.880Z,15.97
2023-03-04T13:30:38.750Z,16.23
2023-03-04T13:32:00.438Z,16.22
2023-03-04T13:33:17.946Z,16.20
2023-03-04T13:34:44.193Z,16.10
2023-03-04T13:35:47.928Z,15.95
2023-03-04T13:36:57.424Z,16.03
2023-03-04T13:38:02.202Z,16.10
2023-03-04T13:39:15.809Z,16.10
2023-03-04T13:40:24.340Z,16.18
2023-03-04T13:41:32.783Z,16.40
2023-03-04T13:42:41.860Z,16.49
2023-03-04T13:43:48.623Z,16.68
2023-03-04T13:45:01.451Z,16.78
2023-03-04T13:46:20.597Z,16.73
2023-03-04T13:47:31.361Z,16.85
2023-03-04T13:48:37.460Z,16.75
2023-03-04T13:49:41.392Z,16.64
2023-03-04T13:50:48.899Z,16.53
2023-03-04T13:51:52.314Z,16.36
2023-03-04T13:52:56.434Z,16.42
2023-03-04T13:53:59.782Z,16.48
2023-03-04T13:55:40.643Z,16.25
2023-03-04T13:56:48.654Z,16.14
2023-03-04T13:57:52.593Z,16.24
2023-03-04T13:59:45.715Z,16.09
2023-03-04T14:00:59.281Z,15.84
2023-03-04T14:02:04.231Z,15.79
2023-03-04T14:03:15.260Z,15.66
2023-03-04T14:04:21.692Z,15.74
2023-03-04T14:05:25.652Z,15.70
2023-03-04T14:06:30.975Z,15.83
2023-03-04T14:07:36.469Z,15.94
2023-03-04T14:08:40.040Z,16.07
2023-03-04T14:09:44.712Z,16.08
2023-03-04T14:10:56.626Z,15.95
2023-03-04T14:12:04.510Z,15.97
2023-03-04T14:13:09.503Z,16.04
2023-03-04T14:14:17.683Z,16.02
2023-03-04T14:15:30.659Z,16.12
2023-03-04T14:16:40.301Z,16.13
2023-03-04T14:17:48.563Z,16.05
2023-03-04T14:19:04.826Z,16.03
2023-03-04T14:20:34.950Z,15.96
2023-03-04T14:21:39.065Z,16.01
2023-03-04T14:22:42.714Z,16.11
2023-03-04T14:23:46.553Z,16.18
2023-03-04T14:25:14.478Z,16.24
2023-03-04T14:26:18.916Z,16.23
2023-03-04T14:27:22.750Z,16.27
2023-03-04T14:28:26.316Z,16.18
2023-03-04T14:29:31.643Z,15.97
2023-03-04T14:30:42.679Z,15.92
2023-03-04T14:31:47.840Z,15.90
2023-03-04T14:32:55.530Z,15.93
2023-03-04T14:34:03.238Z,16.01
2023-03-04T14:35:21.026Z,16.04
2023-03-04T14:36:24.752Z,16.09
2023-03-04T14:37:31.933Z,16.07
2023-03-04T14:38:37.743Z,16.00
2023-03-04T14:39:42.133Z,15.99
2023-03-04T14:40:47.947Z,16.16
2023-03-04T14:41:51.534Z,16.12
2023-03-04T14:43:02.000Z,16.09
2023-03-04T14:44:14.428Z,16.13
2023-03-04T14:45:18.414Z,16.13
2023-03-04T14:46:22.323Z,16.22